Bakersfield, California
Current Conditions -  °F | °C
As of 1:54 AM on Sunday 23 Nov 2014 (Local Time) from KBFL Reporting Station
Overcast Overcast  
Wind Chill: 55°   Ceiling: 4400
Heat Index: 55°   Visibility: 7mi
Dew Point: 48°   Wind: 7mph
Humidity: 77%   Direction: 260°W
Pressure: 30.19"   Gusts: NA
Location:  35.37°N, 119.01°W
Report Text: KBFL 230954Z AUTO 26006KT 7SM FEW029 OVC044 13/09 A3019 RMK AO2 SLP221 T01280089
Loading
Personal Weather Stations






























Interactive Weather Map New forecast layout! Learn more

10-Day Weather Forecast

Advertisements
Track Severe Weather on mobile